Terminal Aerodrome Forecast
Issued by NWS

Home | Current Version | Previous Version | Text Only | Print | Product List | Glossary On
Versions: 1 2 3 4 5 6 7 8 9 10 11 12 13 14 15 16
000
FTAK31 PAJN 261700
TAFAGY
TAF
PAGY 261736Z 2618/2718 21012G20KT P6SM VCSH BKN015 OVC050
     FM262000 21010KT 6SM -SHRA SCT030 OVC050
     FM262200 VRB05KT 5SM -SHRA BKN030 OVC050
     FM270000 03010KT 6SM -SHRASN BKN020 OVC040
     FM270600 03013KT P6SM VCSH SCT020 BKN050
     FM271000 03013KT P6SM FEW060
      AMD LTD TO CLD VIS AND WIND=

USA.gov is the U.S. government's official web portal to all federal, state and local government web resources and services.